sensor_id;sensor_type;location;lat;lon;timestamp;temperature;humidity
13496;DHT22;6820;49.374;8.452;2024-03-23T00:54:56;13.38;99.99
13496;DHT22;6820;49.374;8.452;2024-03-23T00:58:57;13.38;99.99
13496;DHT22;6820;49.374;8.452;2024-03-23T01:02:57;13.36;99.99
13496;DHT22;6820;49.374;8.452;2024-03-23T01:06:58;13.32;99.99
13496;DHT22;6820;49.374;8.452;2024-03-23T01:11:00;13.39;99.99
13496;DHT22;6820;49.374;8.452;2024-03-23T01:15:01;13.46;99.99
13496;DHT22;6820;49.374;8.452;2024-03-23T01:19:03;13.51;99.99
13496;DHT22;6820;49.374;8.452;2024-03-23T01:23:03;13.55;99.99
13496;DHT22;6820;49.374;8.452;2024-03-23T01:27:04;13.57;99.99
13496;DHT22;6820;49.374;8.452;2024-03-23T01:31:05;13.62;99.99
13496;DHT22;6820;49.374;8.452;2024-03-23T01:35:06;13.65;99.99
13496;DHT22;6820;49.374;8.452;2024-03-23T01:39:07;13.66;99.99
13496;DHT22;6820;49.374;8.452;2024-03-23T01:43:10;13.63;99.99
13496;DHT22;6820;49.374;8.452;2024-03-23T01:47:10;13.65;99.99
13496;DHT22;6820;49.374;8.452;2024-03-23T01:51:11;13.65;99.99
13496;DHT22;6820;49.374;8.452;2024-03-23T01:55:13;13.66;99.99
13496;DHT22;6820;49.374;8.452;2024-03-23T01:59:14;13.66;99.99
13496;DHT22;6820;49.374;8.452;2024-03-23T02:03:27;13.66;99.99
13496;DHT22;6820;49.374;8.452;2024-03-23T02:07:28;13.65;99.99
13496;DHT22;6820;49.374;8.452;2024-03-23T02:11:29;13.66;99.99
13496;DHT22;6820;49.374;8.452;2024-03-23T02:15:30;13.65;99.99
13496;DHT22;6820;49.374;8.452;2024-03-23T02:19:31;13.68;99.99
13496;DHT22;6820;49.374;8.452;2024-03-23T02:23:31;13.66;99.99
13496;DHT22;6820;49.374;8.452;2024-03-23T02:27:32;13.65;99.99
13496;DHT22;6820;49.374;8.452;2024-03-23T02:31:35;13.66;99.99
13496;DHT22;6820;49.374;8.452;2024-03-23T02:35:36;13.65;99.99
13496;DHT22;6820;49.374;8.452;2024-03-23T02:39:37;13.65;99.99
13496;DHT22;6820;49.374;8.452;2024-03-23T02:43:38;13.66;99.99
13496;DHT22;6820;49.374;8.452;2024-03-23T02:47:38;13.65;99.99
13496;DHT22;6820;49.374;8.452;2024-03-23T02:51:39;13.55;99.99
13496;DHT22;6820;49.374;8.452;2024-03-23T02:55:41;13.51;99.99
13496;DHT22;6820;49.374;8.452;2024-03-23T02:59:42;13.50;99.99
13496;DHT22;6820;49.374;8.452;2024-03-23T03:03:42;13.47;99.99
13496;DHT22;6820;49.374;8.452;2024-03-23T03:07:43;13.44;99.99
13496;DHT22;6820;49.374;8.452;2024-03-23T03:11:43;13.32;99.99
13496;DHT22;6820;49.374;8.452;2024-03-23T03:15:44;13.22;99.99
13496;DHT22;6820;49.374;8.452;2024-03-23T03:19:45;13.13;99.99
13496;DHT22;6820;49.374;8.452;2024-03-23T03:23:46;13.12;99.99
13496;DHT22;6820;49.374;8.452;2024-03-23T03:27:50;13.06;99.99
13496;DHT22;6820;49.374;8.452;2024-03-23T03:31:51;13.06;99.99
13496;DHT22;6820;49.374;8.452;2024-03-23T03:35:52;13.09;99.99
13496;DHT22;6820;49.374;8.452;2024-03-23T03:39:52;13.10;99.99
13496;DHT22;6820;49.374;8.452;2024-03-23T03:43:53;13.14;99.99
13496;DHT22;6820;49.374;8.452;2024-03-23T03:47:55;13.14;99.99
13496;DHT22;6820;49.374;8.452;2024-03-23T03:51:56;13.14;99.99
13496;DHT22;6820;49.374;8.452;2024-03-23T03:56:00;13.16;99.99
13496;DHT22;6820;49.374;8.452;2024-03-23T04:00:01;13.17;99.99
13496;DHT22;6820;49.374;8.452;2024-03-23T04:04:04;13.19;99.99
13496;DHT22;6820;49.374;8.452;2024-03-23T04:08:05;13.21;99.99
13496;DHT22;6820;49.374;8.452;2024-03-23T04:12:07;13.14;99.99
13496;DHT22;6820;49.374;8.452;2024-03-23T04:16:08;13.13;99.99
13496;DHT22;6820;49.374;8.452;2024-03-23T04:20:10;13.16;99.99
13496;DHT22;6820;49.374;8.452;2024-03-23T04:24:11;13.16;99.99
13496;DHT22;6820;49.374;8.452;2024-03-23T04:28:12;13.13;99.99
13496;DHT22;6820;49.374;8.452;2024-03-23T04:32:12;13.09;99.99
13496;DHT22;6820;49.374;8.452;2024-03-23T04:36:14;13.07;99.99
13496;DHT22;6820;49.374;8.452;2024-03-23T04:40:15;13.09;99.99
13496;DHT22;6820;49.374;8.452;2024-03-23T04:44:15;13.09;99.99
13496;DHT22;6820;49.374;8.452;2024-03-23T04:48:16;13.06;99.99
13496;DHT22;6820;49.374;8.452;2024-03-23T04:52:18;13.04;99.99
13496;DHT22;6820;49.374;8.452;2024-03-23T04:56:19;12.99;99.99
13496;DHT22;6820;49.374;8.452;2024-03-23T05:00:19;12.99;99.99
13496;DHT22;6820;49.374;8.452;2024-03-23T05:04:20;12.96;99.99
13496;DHT22;6820;49.374;8.452;2024-03-23T05:08:21;12.87;99.99
13496;DHT22;6820;49.374;8.452;2024-03-23T05:12:21;12.77;99.99
13496;DHT22;6820;49.374;8.452;2024-03-23T05:16:22;12.70;99.99
13496;DHT22;6820;49.374;8.452;2024-03-23T05:20:23;12.63;99.99
13496;DHT22;6820;49.374;8.452;2024-03-23T05:24:23;12.59;99.99
13496;DHT22;6820;49.374;8.452;2024-03-23T05:28:24;12.55;99.99
13496;DHT22;6820;49.374;8.452;2024-03-23T05:32:25;12.51;99.99
13496;DHT22;6820;49.374;8.452;2024-03-23T05:36:26;12.34;99.99
13496;DHT22;6820;49.374;8.452;2024-03-23T05:40:26;11.90;99.99
13496;DHT22;6820;49.374;8.452;2024-03-23T05:44:27;11.57;99.99
13496;DHT22;6820;49.374;8.452;2024-03-23T05:48:28;11.36;99.99
13496;DHT22;6820;49.374;8.452;2024-03-23T05:52:30;11.23;99.99
13496;DHT22;6820;49.374;8.452;2024-03-23T05:56:31;11.17;99.99
13496;DHT22;6820;49.374;8.452;2024-03-23T06:00:32;11.11;99.99
13496;DHT22;6820;49.374;8.452;2024-03-23T06:04:32;11.08;99.99
13496;DHT22;6820;49.374;8.452;2024-03-23T06:08:33;11.05;99.99
13496;DHT22;6820;49.374;8.452;2024-03-23T06:12:36;10.93;99.99
13496;DHT22;6820;49.374;8.452;2024-03-23T06:16:37;10.98;99.99
13496;DHT22;6820;49.374;8.452;2024-03-23T06:20:37;10.94;99.99
13496;DHT22;6820;49.374;8.452;2024-03-23T06:24:39;11.02;99.99
13496;DHT22;6820;49.374;8.452;2024-03-23T06:28:39;11.01;99.99
13496;DHT22;6820;49.374;8.452;2024-03-23T06:32:40;10.99;99.99
13496;DHT22;6820;49.374;8.452;2024-03-23T06:36:41;10.95;99.99
13496;DHT22;6820;49.374;8.452;2024-03-23T06:40:41;10.94;99.99
13496;DHT22;6820;49.374;8.452;2024-03-23T06:44:43;10.94;99.99
13496;DHT22;6820;49.374;8.452;2024-03-23T06:48:47;10.98;99.99
13496;DHT22;6820;49.374;8.452;2024-03-23T06:52:49;10.93;99.99
13496;DHT22;6820;49.374;8.452;2024-03-23T06:56:50;10.86;99.99
13496;DHT22;6820;49.374;8.452;2024-03-23T07:00:51;10.91;99.99
13496;DHT22;6820;49.374;8.452;2024-03-23T07:04:52;10.99;99.99
13496;DHT22;6820;49.374;8.452;2024-03-23T07:08:52;10.95;99.99
13496;DHT22;6820;49.374;8.452;2024-03-23T07:12:53;10.95;99.99
13496;DHT22;6820;49.374;8.452;2024-03-23T07:16:54;10.90;99.99
13496;DHT22;6820;49.374;8.452;2024-03-23T07:20:55;10.80;99.99
13496;DHT22;6820;49.374;8.452;2024-03-23T07:24:57;10.87;99.99
13496;DHT22;6820;49.374;8.452;2024-03-23T07:29:00;10.94;99.99
13496;DHT22;6820;49.374;8.452;2024-03-23T07:33:00;10.93;99.99
13496;DHT22;6820;49.374;8.452;2024-03-23T07:37:01;10.86;99.99
13496;DHT22;6820;49.374;8.452;2024-03-23T07:41:05;10.81;99.99
13496;DHT22;6820;49.374;8.452;2024-03-23T07:45:07;10.84;99.99
13496;DHT22;6820;49.374;8.452;2024-03-23T07:49:09;10.86;99.99
13496;DHT22;6820;49.374;8.452;2024-03-23T07:53:10;10.90;99.99
13496;DHT22;6820;49.374;8.452;2024-03-23T07:57:11;11.08;99.99
13496;DHT22;6820;49.374;8.452;2024-03-23T08:01:13;11.19;99.99
13496;DHT22;6820;49.374;8.452;2024-03-23T08:05:14;11.26;99.99
13496;DHT22;6820;49.374;8.452;2024-03-23T08:09:15;11.27;99.99
13496;DHT22;6820;49.374;8.452;2024-03-23T08:13:16;11.28;99.99
13496;DHT22;6820;49.374;8.452;2024-03-23T08:17:17;11.41;99.99
13496;DHT22;6820;49.374;8.452;2024-03-23T08:21:17;11.56;99.99
13496;DHT22;6820;49.374;8.452;2024-03-23T08:25:18;11.57;99.99
13496;DHT22;6820;49.374;8.452;2024-03-23T08:29:19;11.66;99.99
13496;DHT22;6820;49.374;8.452;2024-03-23T08:33:20;11.77;99.99
13496;DHT22;6820;49.374;8.452;2024-03-23T08:37:21;11.81;99.99
13496;DHT22;6820;49.374;8.452;2024-03-23T08:41:22;11.67;99.99
13496;DHT22;6820;49.374;8.452;2024-03-23T08:45:23;11.60;99.99
13496;DHT22;6820;49.374;8.452;2024-03-23T08:49:25;11.60;99.99
13496;DHT22;6820;49.374;8.452;2024-03-23T08:53:27;11.70;99.99
13496;DHT22;6820;49.374;8.452;2024-03-23T08:57:29;11.78;99.99
13496;DHT22;6820;49.374;8.452;2024-03-23T09:01:30;11.77;99.99
13496;DHT22;6820;49.374;8.452;2024-03-23T09:05:31;11.81;99.99
13496;DHT22;6820;49.374;8.452;2024-03-23T09:09:38;11.93;99.99
13496;DHT22;6820;49.374;8.452;2024-03-23T09:13:39;11.98;99.99
13496;DHT22;6820;49.374;8.452;2024-03-23T09:17:41;12.03;99.99
13496;DHT22;6820;49.374;8.452;2024-03-23T09:21:42;12.03;99.99
13496;DHT22;6820;49.374;8.452;2024-03-23T09:25:43;11.98;99.99
13496;DHT22;6820;49.374;8.452;2024-03-23T09:29:44;11.96;99.99
13496;DHT22;6820;49.374;8.452;2024-03-23T09:33:45;11.90;99.99
13496;DHT22;6820;49.374;8.452;2024-03-23T09:37:46;11.94;99.99
13496;DHT22;6820;49.374;8.452;2024-03-23T09:41:46;12.03;99.99
13496;DHT22;6820;49.374;8.452;2024-03-23T09:45:47;12.08;99.99
13496;DHT22;6820;49.374;8.452;2024-03-23T09:49:49;12.13;99.99
13496;DHT22;6820;49.374;8.452;2024-03-23T09:53:50;12.21;99.99
13496;DHT22;6820;49.374;8.452;2024-03-23T09:57:51;12.15;99.99
13496;DHT22;6820;49.374;8.452;2024-03-23T10:01:55;12.21;99.99
13496;DHT22;6820;49.374;8.452;2024-03-23T10:06:00;12.30;99.99
13496;DHT22;6820;49.374;8.452;2024-03-23T10:10:09;12.21;99.99
13496;DHT22;6820;49.374;8.452;2024-03-23T10:14:11;12.25;99.99
13496;DHT22;6820;49.374;8.452;2024-03-23T10:18:18;12.59;99.99
13496;DHT22;6820;49.374;8.452;2024-03-23T10:22:20;12.76;99.99
13496;DHT22;6820;49.374;8.452;2024-03-23T10:26:22;12.88;99.99
13496;DHT22;6820;49.374;8.452;2024-03-23T10:30:28;12.87;99.99
13496;DHT22;6820;49.374;8.452;2024-03-23T10:34:28;12.92;99.99
13496;DHT22;6820;49.374;8.452;2024-03-23T10:38:29;13.13;99.99
13496;DHT22;6820;49.374;8.452;2024-03-23T10:42:30;13.04;99.99
13496;DHT22;6820;49.374;8.452;2024-03-23T10:46:33;12.77;99.99
13496;DHT22;6820;49.374;8.452;2024-03-23T10:50:34;12.70;99.99
13496;DHT22;6820;49.374;8.452;2024-03-23T10:54:35;12.71;99.99
13496;DHT22;6820;49.374;8.452;2024-03-23T10:58:37;13.04;99.99
13496;DHT22;6820;49.374;8.452;2024-03-23T11:02:39;13.17;99.99
13496;DHT22;6820;49.374;8.452;2024-03-23T11:06:40;13.19;99.99
13496;DHT22;6820;49.374;8.452;2024-03-23T11:10:41;13.31;99.99
13496;DHT22;6820;49.374;8.452;2024-03-23T11:14:42;13.43;99.99
13496;DHT22;6820;49.374;8.452;2024-03-23T11:18:44;13.48;99.99
13496;DHT22;6820;49.374;8.452;2024-03-23T11:22:45;13.36;99.99
13496;DHT22;6820;49.374;8.452;2024-03-23T11:26:53;13.27;99.99
13496;DHT22;6820;49.374;8.452;2024-03-23T11:30:53;13.14;99.99
13496;DHT22;6820;49.374;8.452;2024-03-23T11:34:54;13.10;99.99
13496;DHT22;6820;49.374;8.452;2024-03-23T11:38:55;13.13;99.99
13496;DHT22;6820;49.374;8.452;2024-03-23T11:42:56;13.06;99.99
13496;DHT22;6820;49.374;8.452;2024-03-23T11:47:08;12.91;99.99
13496;DHT22;6820;49.374;8.452;2024-03-23T11:51:09;12.77;99.99
13496;DHT22;6820;49.374;8.452;2024-03-23T11:55:11;12.33;99.99
13496;DHT22;6820;49.374;8.452;2024-03-23T11:59:12;11.79;99.99
13496;DHT22;6820;49.374;8.452;2024-03-23T12:03:12;11.38;99.99
13496;DHT22;6820;49.374;8.452;2024-03-23T12:07:17;10.95;99.99
13496;DHT22;6820;49.374;8.452;2024-03-23T12:11:19;10.38;99.99
13496;DHT22;6820;49.374;8.452;2024-03-23T12:15:20;10.11;99.99
13496;DHT22;6820;49.374;8.452;2024-03-23T12:19:21;9.98;99.99
13496;DHT22;6820;49.374;8.452;2024-03-23T12:23:22;9.96;99.99
13496;DHT22;6820;49.374;8.452;2024-03-23T12:27:23;9.78;99.99
13496;DHT22;6820;49.374;8.452;2024-03-23T12:31:24;9.86;99.99
13496;DHT22;6820;49.374;8.452;2024-03-23T12:35:25;10.51;99.99
13496;DHT22;6820;49.374;8.452;2024-03-23T12:39:26;10.80;99.99
13496;DHT22;6820;49.374;8.452;2024-03-23T12:43:27;10.93;99.99
13496;DHT22;6820;49.374;8.452;2024-03-23T12:47:28;10.94;99.99
13496;DHT22;6820;49.374;8.452;2024-03-23T12:51:30;10.99;99.99
13496;DHT22;6820;49.374;8.452;2024-03-23T12:55:32;10.88;99.99
13496;DHT22;6820;49.374;8.452;2024-03-23T12:59:35;9.81;99.99
13496;DHT22;6820;49.374;8.452;2024-03-23T13:03:35;8.82;99.99
13496;DHT22;6820;49.374;8.452;2024-03-23T13:07:36;8.34;99.99
13496;DHT22;6820;49.374;8.452;2024-03-23T13:11:38;8.73;99.99
13496;DHT22;6820;49.374;8.452;2024-03-23T13:15:39;9.42;99.99
13496;DHT22;6820;49.374;8.452;2024-03-23T13:19:40;9.67;99.99
13496;DHT22;6820;49.374;8.452;2024-03-23T13:23:41;9.60;99.99
13496;DHT22;6820;49.374;8.452;2024-03-23T13:27:42;9.62;99.99
13496;DHT22;6820;49.374;8.452;2024-03-23T13:31:44;9.92;99.99
13496;DHT22;6820;49.374;8.452;2024-03-23T13:35:54;10.26;99.99
13496;DHT22;6820;49.374;8.452;2024-03-23T13:39:56;10.93;99.99
13496;DHT22;6820;49.374;8.452;2024-03-23T13:43:57;11.51;99.99
13496;DHT22;6820;49.374;8.452;2024-03-23T13:47:57;11.57;99.99
13496;DHT22;6820;49.374;8.452;2024-03-23T13:51:58;11.64;99.99
13496;DHT22;6820;49.374;8.452;2024-03-23T13:55:59;12.01;99.99
13496;DHT22;6820;49.374;8.452;2024-03-23T14:00:00;11.96;99.99
13496;DHT22;6820;49.374;8.452;2024-03-23T14:04:01;12.12;99.99
13496;DHT22;6820;49.374;8.452;2024-03-23T14:08:02;12.41;99.99
13496;DHT22;6820;49.374;8.452;2024-03-23T14:12:02;12.62;99.99
13496;DHT22;6820;49.374;8.452;2024-03-23T14:16:03;13.06;99.99
13496;DHT22;6820;49.374;8.452;2024-03-23T14:20:04;13.17;99.99
13496;DHT22;6820;49.374;8.452;2024-03-23T14:24:05;13.10;99.99
13496;DHT22;6820;49.374;8.452;2024-03-23T14:28:06;12.51;99.99
13496;DHT22;6820;49.374;8.452;2024-03-23T14:32:14;12.03;99.99
13496;DHT22;6820;49.374;8.452;2024-03-23T14:36:16;11.79;99.99
13496;DHT22;6820;49.374;8.452;2024-03-23T14:40:17;11.66;99.99
13496;DHT22;6820;49.374;8.452;2024-03-23T14:44:18;11.60;99.99
13496;DHT22;6820;49.374;8.452;2024-03-23T14:48:19;11.59;99.99
13496;DHT22;6820;49.374;8.452;2024-03-23T14:52:20;11.82;99.99
13496;DHT22;6820;49.374;8.452;2024-03-23T14:56:21;11.57;99.99
13496;DHT22;6820;49.374;8.452;2024-03-23T15:00:21;11.59;99.99
13496;DHT22;6820;49.374;8.452;2024-03-23T15:04:22;11.41;99.99
13496;DHT22;6820;49.374;8.452;2024-03-23T15:08:23;11.77;99.99
13496;DHT22;6820;49.374;8.452;2024-03-23T15:12:24;11.88;99.99
13496;DHT22;6820;49.374;8.452;2024-03-23T15:16:25;11.66;99.99
13496;DHT22;6820;49.374;8.452;2024-03-23T15:20:26;11.48;99.99
13496;DHT22;6820;49.374;8.452;2024-03-23T15:24:27;11.38;99.99
13496;DHT22;6820;49.374;8.452;2024-03-23T15:28:28;11.31;99.99
13496;DHT22;6820;49.374;8.452;2024-03-23T15:32:41;11.21;99.99
13496;DHT22;6820;49.374;8.452;2024-03-23T15:36:41;11.20;99.99
13496;DHT22;6820;49.374;8.452;2024-03-23T15:40:42;10.91;99.99
13496;DHT22;6820;49.374;8.452;2024-03-23T15:44:51;9.65;99.99
13496;DHT22;6820;49.374;8.452;2024-03-23T15:48:52;8.17;99.99
13496;DHT22;6820;49.374;8.452;2024-03-23T15:52:54;7.41;99.99
13496;DHT22;6820;49.374;8.452;2024-03-23T15:56:56;7.11;99.99
13496;DHT22;6820;49.374;8.452;2024-03-23T16:01:00;7.19;99.99
13496;DHT22;6820;49.374;8.452;2024-03-23T16:05:02;7.84;99.99
13496;DHT22;6820;49.374;8.452;2024-03-23T16:09:08;8.80;99.99
13496;DHT22;6820;49.374;8.452;2024-03-23T16:13:09;9.16;99.99
13496;DHT22;6820;49.374;8.452;2024-03-23T16:17:10;9.10;99.99
13496;DHT22;6820;49.374;8.452;2024-03-23T16:21:13;8.89;99.99
13496;DHT22;6820;49.374;8.452;2024-03-23T16:25:14;8.83;99.99
13496;DHT22;6820;49.374;8.452;2024-03-23T16:29:15;9.01;99.99
13496;DHT22;6820;49.374;8.452;2024-03-23T16:33:16;9.12;99.99
13496;DHT22;6820;49.374;8.452;2024-03-23T16:37:19;8.97;99.99
13496;DHT22;6820;49.374;8.452;2024-03-23T16:41:20;9.00;99.99
13496;DHT22;6820;49.374;8.452;2024-03-23T16:45:24;8.96;99.99
13496;DHT22;6820;49.374;8.452;2024-03-23T16:49:24;8.85;99.99
13496;DHT22;6820;49.374;8.452;2024-03-23T16:53:25;8.50;99.99
13496;DHT22;6820;49.374;8.452;2024-03-23T16:57:29;8.39;99.99
13496;DHT22;6820;49.374;8.452;2024-03-23T17:01:31;8.27;99.99
13496;DHT22;6820;49.374;8.452;2024-03-23T17:05:38;8.27;99.99
13496;DHT22;6820;49.374;8.452;2024-03-23T17:09:46;8.29;99.99
13496;DHT22;6820;49.374;8.452;2024-03-23T17:13:53;8.32;99.99
13496;DHT22;6820;49.374;8.452;2024-03-23T17:17:59;8.28;99.99
13496;DHT22;6820;49.374;8.452;2024-03-23T17:22:01;8.29;99.99
13496;DHT22;6820;49.374;8.452;2024-03-23T17:26:02;8.28;99.99
13496;DHT22;6820;49.374;8.452;2024-03-23T17:30:03;8.28;99.99
13496;DHT22;6820;49.374;8.452;2024-03-23T17:34:04;8.25;99.99
13496;DHT22;6820;49.374;8.452;2024-03-23T17:38:05;8.27;99.99
13496;DHT22;6820;49.374;8.452;2024-03-23T17:42:06;8.25;99.99
13496;DHT22;6820;49.374;8.452;2024-03-23T17:46:06;8.13;99.99
13496;DHT22;6820;49.374;8.452;2024-03-23T17:50:08;8.14;99.99
13496;DHT22;6820;49.374;8.452;2024-03-23T17:54:09;8.13;99.99
13496;DHT22;6820;49.374;8.452;2024-03-23T17:58:10;8.14;99.99
13496;DHT22;6820;49.374;8.452;2024-03-23T18:02:10;8.12;99.99
13496;DHT22;6820;49.374;8.452;2024-03-23T18:06:11;8.06;99.99
13496;DHT22;6820;49.374;8.452;2024-03-23T18:10:12;8.04;99.99
13496;DHT22;6820;49.374;8.452;2024-03-23T18:14:13;8.04;99.99
13496;DHT22;6820;49.374;8.452;2024-03-23T18:18:13;8.06;99.99
13496;DHT22;6820;49.374;8.452;2024-03-23T18:22:14;8.06;99.99
13496;DHT22;6820;49.374;8.452;2024-03-23T18:26:15;7.96;99.99
13496;DHT22;6820;49.374;8.452;2024-03-23T18:30:16;7.94;99.99
13496;DHT22;6820;49.374;8.452;2024-03-23T18:34:17;7.88;99.99
13496;DHT22;6820;49.374;8.452;2024-03-23T18:38:18;7.81;99.99
13496;DHT22;6820;49.374;8.452;2024-03-23T18:42:19;7.81;99.99
13496;DHT22;6820;49.374;8.452;2024-03-23T18:46:20;7.74;99.99
13496;DHT22;6820;49.374;8.452;2024-03-23T18:50:26;7.60;99.99
13496;DHT22;6820;49.374;8.452;2024-03-23T18:54:27;7.55;99.99
13496;DHT22;6820;49.374;8.452;2024-03-23T18:58:28;7.58;99.99
13496;DHT22;6820;49.374;8.452;2024-03-23T19:02:29;7.48;99.99
13496;DHT22;6820;49.374;8.452;2024-03-23T19:06:29;7.52;99.99
13496;DHT22;6820;49.374;8.452;2024-03-23T19:10:30;7.47;99.99
13496;DHT22;6820;49.374;8.452;2024-03-23T19:14:31;7.42;99.99
13496;DHT22;6820;49.374;8.452;2024-03-23T19:18:32;7.42;99.99
13496;DHT22;6820;49.374;8.452;2024-03-23T19:22:33;7.41;99.99
13496;DHT22;6820;49.374;8.452;2024-03-23T19:26:35;7.36;99.99
13496;DHT22;6820;49.374;8.452;2024-03-23T19:30:36;7.36;99.99
13496;DHT22;6820;49.374;8.452;2024-03-23T19:34:36;7.37;99.99
13496;DHT22;6820;49.374;8.452;2024-03-23T19:38:38;7.37;99.99
13496;DHT22;6820;49.374;8.452;2024-03-23T19:42:38;7.37;99.99
13496;DHT22;6820;49.374;8.452;2024-03-23T19:46:39;7.36;99.99
13496;DHT22;6820;49.374;8.452;2024-03-23T19:50:40;7.41;99.99
13496;DHT22;6820;49.374;8.452;2024-03-23T19:54:42;7.42;99.99
13496;DHT22;6820;49.374;8.452;2024-03-23T19:58:43;7.48;99.99
13496;DHT22;6820;49.374;8.452;2024-03-23T20:02:44;7.51;99.99
13496;DHT22;6820;49.374;8.452;2024-03-23T20:06:46;7.52;99.99
13496;DHT22;6820;49.374;8.452;2024-03-23T20:10:46;7.47;99.99
13496;DHT22;6820;49.374;8.452;2024-03-23T20:14:47;7.47;99.99
13496;DHT22;6820;49.374;8.452;2024-03-23T20:18:52;7.47;99.99
13496;DHT22;6820;49.374;8.452;2024-03-23T20:22:56;7.50;99.99
13496;DHT22;6820;49.374;8.452;2024-03-23T20:26:57;7.50;99.99
13496;DHT22;6820;49.374;8.452;2024-03-23T20:31:00;7.52;99.99
13496;DHT22;6820;49.374;8.452;2024-03-23T20:35:01;7.52;99.99
13496;DHT22;6820;49.374;8.452;2024-03-23T20:39:03;7.51;99.99
13496;DHT22;6820;49.374;8.452;2024-03-23T20:43:07;7.52;99.99
13496;DHT22;6820;49.374;8.452;2024-03-23T20:47:12;7.51;99.99
13496;DHT22;6820;49.374;8.452;2024-03-23T20:51:13;7.51;99.99
13496;DHT22;6820;49.374;8.452;2024-03-23T20:55:14;7.48;99.99
13496;DHT22;6820;49.374;8.452;2024-03-23T20:59:15;7.50;99.99
13496;DHT22;6820;49.374;8.452;2024-03-23T21:03:15;7.42;99.99
13496;DHT22;6820;49.374;8.452;2024-03-23T21:07:16;7.41;99.99
13496;DHT22;6820;49.374;8.452;2024-03-23T21:11:17;7.36;99.99
13496;DHT22;6820;49.374;8.452;2024-03-23T21:15:18;7.33;99.99
13496;DHT22;6820;49.374;8.452;2024-03-23T21:19:19;7.29;99.99
13496;DHT22;6820;49.374;8.452;2024-03-23T21:23:20;7.27;99.99
13496;DHT22;6820;49.374;8.452;2024-03-23T21:27:27;7.23;99.99
13496;DHT22;6820;49.374;8.452;2024-03-23T21:31:31;7.18;99.99
13496;DHT22;6820;49.374;8.452;2024-03-23T21:35:33;7.16;99.99
13496;DHT22;6820;49.374;8.452;2024-03-23T21:39:34;7.16;99.99
13496;DHT22;6820;49.374;8.452;2024-03-23T21:43:35;7.15;99.99
13496;DHT22;6820;49.374;8.452;2024-03-23T21:47:36;7.15;99.99
13496;DHT22;6820;49.374;8.452;2024-03-23T21:51:36;7.15;99.99
13496;DHT22;6820;49.374;8.452;2024-03-23T21:55:37;7.18;99.99
13496;DHT22;6820;49.374;8.452;2024-03-23T21:59:38;7.21;99.99
13496;DHT22;6820;49.374;8.452;2024-03-23T22:03:51;7.19;99.99
13496;DHT22;6820;49.374;8.452;2024-03-23T22:07:52;7.19;99.99
13496;DHT22;6820;49.374;8.452;2024-03-23T22:11:53;7.19;99.99
13496;DHT22;6820;49.374;8.452;2024-03-23T22:15:57;7.18;99.99
13496;DHT22;6820;49.374;8.452;2024-03-23T22:20:03;7.16;99.99
13496;DHT22;6820;49.374;8.452;2024-03-23T22:24:07;7.16;99.99
13496;DHT22;6820;49.374;8.452;2024-03-23T22:28:08;7.16;99.99
13496;DHT22;6820;49.374;8.452;2024-03-23T22:32:08;7.19;99.99
13496;DHT22;6820;49.374;8.452;2024-03-23T22:36:09;7.24;99.99
13496;DHT22;6820;49.374;8.452;2024-03-23T22:40:10;7.21;99.99
13496;DHT22;6820;49.374;8.452;2024-03-23T22:44:11;7.24;99.99
13496;DHT22;6820;49.374;8.452;2024-03-23T22:48:11;7.19;99.99
13496;DHT22;6820;49.374;8.452;2024-03-23T22:52:12;7.26;99.99
13496;DHT22;6820;49.374;8.452;2024-03-23T22:56:13;7.24;99.99
13496;DHT22;6820;49.374;8.452;2024-03-23T23:00:14;7.27;99.99
13496;DHT22;6820;49.374;8.452;2024-03-23T23:04:17;7.26;99.99
13496;DHT22;6820;49.374;8.452;2024-03-23T23:08:19;7.29;99.99
13496;DHT22;6820;49.374;8.452;2024-03-23T23:12:20;7.29;99.99
13496;DHT22;6820;49.374;8.452;2024-03-23T23:16:21;7.30;99.99
13496;DHT22;6820;49.374;8.452;2024-03-23T23:20:21;7.32;99.99
13496;DHT22;6820;49.374;8.452;2024-03-23T23:24:22;7.32;99.99
13496;DHT22;6820;49.374;8.452;2024-03-23T23:28:23;7.34;99.99
13496;DHT22;6820;49.374;8.452;2024-03-23T23:32:24;7.36;99.99
13496;DHT22;6820;49.374;8.452;2024-03-23T23:36:25;7.37;99.99
13496;DHT22;6820;49.374;8.452;2024-03-23T23:40:25;7.37;99.99
13496;DHT22;6820;49.374;8.452;2024-03-23T23:44:26;7.37;99.99
13496;DHT22;6820;49.374;8.452;2024-03-23T23:48:27;7.42;99.99
13496;DHT22;6820;49.374;8.452;2024-03-23T23:52:27;7.44;99.99
13496;DHT22;6820;49.374;8.452;2024-03-23T23:56:29;7.44;99.99
